sensor_id;sensor_type;location;lat;lon;timestamp;P1;durP1;ratioP1;P2;durP2;ratioP2
3939;SDS011;1984;48.312;9.244;2024-03-22T00:00:53;12.40;;;8.60;;
3939;SDS011;1984;48.312;9.244;2024-03-22T00:03:19;13.67;;;8.43;;
3939;SDS011;1984;48.312;9.244;2024-03-22T00:05:45;11.53;;;8.47;;
3939;SDS011;1984;48.312;9.244;2024-03-22T00:08:10;22.17;;;8.80;;
3939;SDS011;1984;48.312;9.244;2024-03-22T00:10:36;13.67;;;9.50;;
3939;SDS011;1984;48.312;9.244;2024-03-22T00:13:01;15.00;;;9.63;;
3939;SDS011;1984;48.312;9.244;2024-03-22T00:15:27;16.33;;;8.87;;
3939;SDS011;1984;48.312;9.244;2024-03-22T00:17:53;13.33;;;8.30;;
3939;SDS011;1984;48.312;9.244;2024-03-22T00:20:18;17.23;;;7.97;;
3939;SDS011;1984;48.312;9.244;2024-03-22T00:22:44;12.43;;;8.90;;
3939;SDS011;1984;48.312;9.244;2024-03-22T00:25:09;11.67;;;8.20;;
3939;SDS011;1984;48.312;9.244;2024-03-22T00:27:35;11.20;;;7.90;;
3939;SDS011;1984;48.312;9.244;2024-03-22T00:30:00;15.87;;;8.20;;
3939;SDS011;1984;48.312;9.244;2024-03-22T00:32:26;12.50;;;7.80;;
3939;SDS011;1984;48.312;9.244;2024-03-22T00:34:51;11.13;;;7.20;;
3939;SDS011;1984;48.312;9.244;2024-03-22T00:37:17;14.03;;;7.90;;
3939;SDS011;1984;48.312;9.244;2024-03-22T00:39:42;8.30;;;6.60;;
3939;SDS011;1984;48.312;9.244;2024-03-22T00:42:08;11.33;;;6.43;;
3939;SDS011;1984;48.312;9.244;2024-03-22T00:44:34;8.93;;;7.03;;
3939;SDS011;1984;48.312;9.244;2024-03-22T00:46:59;8.97;;;7.40;;
3939;SDS011;1984;48.312;9.244;2024-03-22T00:49:27;13.13;;;8.10;;
3939;SDS011;1984;48.312;9.244;2024-03-22T00:51:52;15.67;;;8.10;;
3939;SDS011;1984;48.312;9.244;2024-03-22T00:54:20;10.03;;;6.63;;
3939;SDS011;1984;48.312;9.244;2024-03-22T00:56:45;11.63;;;7.97;;
3939;SDS011;1984;48.312;9.244;2024-03-22T00:59:12;21.90;;;8.40;;
3939;SDS011;1984;48.312;9.244;2024-03-22T01:01:37;11.00;;;7.00;;
3939;SDS011;1984;48.312;9.244;2024-03-22T01:04:03;12.03;;;7.27;;
3939;SDS011;1984;48.312;9.244;2024-03-22T01:06:28;9.00;;;6.33;;
3939;SDS011;1984;48.312;9.244;2024-03-22T01:08:54;13.30;;;6.90;;
3939;SDS011;1984;48.312;9.244;2024-03-22T01:11:19;9.60;;;5.83;;
3939;SDS011;1984;48.312;9.244;2024-03-22T01:13:45;13.23;;;6.60;;
3939;SDS011;1984;48.312;9.244;2024-03-22T01:16:11;8.07;;;5.80;;
3939;SDS011;1984;48.312;9.244;2024-03-22T01:18:36;10.00;;;6.83;;
3939;SDS011;1984;48.312;9.244;2024-03-22T01:21:02;9.87;;;5.97;;
3939;SDS011;1984;48.312;9.244;2024-03-22T01:23:28;8.20;;;5.70;;
3939;SDS011;1984;48.312;9.244;2024-03-22T01:25:53;8.07;;;6.00;;
3939;SDS011;1984;48.312;9.244;2024-03-22T01:28:19;21.30;;;6.63;;
3939;SDS011;1984;48.312;9.244;2024-03-22T01:30:45;10.40;;;6.33;;
3939;SDS011;1984;48.312;9.244;2024-03-22T01:33:10;7.87;;;5.43;;
3939;SDS011;1984;48.312;9.244;2024-03-22T01:35:36;15.43;;;6.60;;
3939;SDS011;1984;48.312;9.244;2024-03-22T01:38:01;12.37;;;7.03;;
3939;SDS011;1984;48.312;9.244;2024-03-22T01:40:27;9.30;;;6.30;;
3939;SDS011;1984;48.312;9.244;2024-03-22T01:42:53;7.10;;;5.93;;
3939;SDS011;1984;48.312;9.244;2024-03-22T01:45:20;10.97;;;6.27;;
3939;SDS011;1984;48.312;9.244;2024-03-22T01:47:47;11.50;;;6.40;;
3939;SDS011;1984;48.312;9.244;2024-03-22T01:50:13;14.10;;;6.10;;
3939;SDS011;1984;48.312;9.244;2024-03-22T01:52:39;13.43;;;6.67;;
3939;SDS011;1984;48.312;9.244;2024-03-22T01:55:05;12.53;;;6.33;;
3939;SDS011;1984;48.312;9.244;2024-03-22T01:57:33;12.73;;;6.67;;
3939;SDS011;1984;48.312;9.244;2024-03-22T01:59:59;10.93;;;5.67;;
3939;SDS011;1984;48.312;9.244;2024-03-22T02:02:25;10.93;;;7.20;;
3939;SDS011;1984;48.312;9.244;2024-03-22T02:04:51;10.53;;;7.17;;
3939;SDS011;1984;48.312;9.244;2024-03-22T02:07:16;15.03;;;7.50;;
3939;SDS011;1984;48.312;9.244;2024-03-22T02:09:42;13.87;;;6.50;;
3939;SDS011;1984;48.312;9.244;2024-03-22T02:12:08;19.53;;;6.77;;
3939;SDS011;1984;48.312;9.244;2024-03-22T02:14:34;11.87;;;6.90;;
3939;SDS011;1984;48.312;9.244;2024-03-22T02:16:59;9.57;;;6.43;;
3939;SDS011;1984;48.312;9.244;2024-03-22T02:19:25;13.30;;;6.43;;
3939;SDS011;1984;48.312;9.244;2024-03-22T02:21:50;10.40;;;7.70;;
3939;SDS011;1984;48.312;9.244;2024-03-22T02:24:16;10.77;;;7.10;;
3939;SDS011;1984;48.312;9.244;2024-03-22T02:26:41;13.13;;;6.87;;
3939;SDS011;1984;48.312;9.244;2024-03-22T02:29:07;10.37;;;6.40;;
3939;SDS011;1984;48.312;9.244;2024-03-22T02:31:32;16.00;;;7.57;;
3939;SDS011;1984;48.312;9.244;2024-03-22T02:33:58;16.50;;;7.53;;
3939;SDS011;1984;48.312;9.244;2024-03-22T02:36:23;11.40;;;6.70;;
3939;SDS011;1984;48.312;9.244;2024-03-22T02:38:49;10.20;;;6.27;;
3939;SDS011;1984;48.312;9.244;2024-03-22T02:41:14;7.60;;;5.50;;
3939;SDS011;1984;48.312;9.244;2024-03-22T02:43:40;13.63;;;6.30;;
3939;SDS011;1984;48.312;9.244;2024-03-22T02:46:05;8.60;;;5.70;;
3939;SDS011;1984;48.312;9.244;2024-03-22T02:48:31;6.77;;;5.70;;
3939;SDS011;1984;48.312;9.244;2024-03-22T02:50:57;10.13;;;5.43;;
3939;SDS011;1984;48.312;9.244;2024-03-22T02:53:22;8.27;;;5.90;;
3939;SDS011;1984;48.312;9.244;2024-03-22T02:55:48;17.17;;;5.87;;
3939;SDS011;1984;48.312;9.244;2024-03-22T02:58:14;8.37;;;5.67;;
3939;SDS011;1984;48.312;9.244;2024-03-22T03:00:39;12.10;;;6.27;;
3939;SDS011;1984;48.312;9.244;2024-03-22T03:03:05;14.30;;;6.47;;
3939;SDS011;1984;48.312;9.244;2024-03-22T03:05:31;11.83;;;6.03;;
3939;SDS011;1984;48.312;9.244;2024-03-22T03:07:57;9.83;;;6.20;;
3939;SDS011;1984;48.312;9.244;2024-03-22T03:10:22;10.00;;;6.60;;
3939;SDS011;1984;48.312;9.244;2024-03-22T03:12:48;10.03;;;5.77;;
3939;SDS011;1984;48.312;9.244;2024-03-22T03:15:13;8.80;;;5.97;;
3939;SDS011;1984;48.312;9.244;2024-03-22T03:17:39;9.87;;;6.03;;
3939;SDS011;1984;48.312;9.244;2024-03-22T03:20:05;9.67;;;5.20;;
3939;SDS011;1984;48.312;9.244;2024-03-22T03:22:33;8.60;;;5.50;;
3939;SDS011;1984;48.312;9.244;2024-03-22T03:25:00;14.50;;;5.70;;
3939;SDS011;1984;48.312;9.244;2024-03-22T03:27:25;9.90;;;6.40;;
3939;SDS011;1984;48.312;9.244;2024-03-22T03:29:51;11.80;;;5.93;;
3939;SDS011;1984;48.312;9.244;2024-03-22T03:32:16;8.33;;;5.90;;
3939;SDS011;1984;48.312;9.244;2024-03-22T03:34:42;6.90;;;5.43;;
3939;SDS011;1984;48.312;9.244;2024-03-22T03:37:07;10.37;;;5.70;;
3939;SDS011;1984;48.312;9.244;2024-03-22T03:39:33;13.33;;;6.37;;
3939;SDS011;1984;48.312;9.244;2024-03-22T03:41:58;13.10;;;5.83;;
3939;SDS011;1984;48.312;9.244;2024-03-22T03:44:24;7.63;;;4.90;;
3939;SDS011;1984;48.312;9.244;2024-03-22T03:46:49;5.53;;;5.00;;
3939;SDS011;1984;48.312;9.244;2024-03-22T03:49:15;11.97;;;6.27;;
3939;SDS011;1984;48.312;9.244;2024-03-22T03:51:40;7.80;;;5.57;;
3939;SDS011;1984;48.312;9.244;2024-03-22T03:54:06;10.00;;;6.10;;
3939;SDS011;1984;48.312;9.244;2024-03-22T03:56:31;13.13;;;6.10;;
3939;SDS011;1984;48.312;9.244;2024-03-22T03:58:57;6.03;;;5.23;;
3939;SDS011;1984;48.312;9.244;2024-03-22T04:01:23;9.07;;;5.57;;
3939;SDS011;1984;48.312;9.244;2024-03-22T04:03:49;8.20;;;5.30;;
3939;SDS011;1984;48.312;9.244;2024-03-22T04:06:14;10.70;;;5.43;;
3939;SDS011;1984;48.312;9.244;2024-03-22T04:08:40;7.53;;;5.63;;
3939;SDS011;1984;48.312;9.244;2024-03-22T04:11:05;7.63;;;5.60;;
3939;SDS011;1984;48.312;9.244;2024-03-22T04:13:31;10.30;;;5.97;;
3939;SDS011;1984;48.312;9.244;2024-03-22T04:15:58;7.80;;;5.97;;
3939;SDS011;1984;48.312;9.244;2024-03-22T04:18:24;9.97;;;6.30;;
3939;SDS011;1984;48.312;9.244;2024-03-22T04:20:53;9.43;;;6.83;;
3939;SDS011;1984;48.312;9.244;2024-03-22T04:23:22;12.50;;;7.10;;
3939;SDS011;1984;48.312;9.244;2024-03-22T04:25:55;11.50;;;6.70;;
3939;SDS011;1984;48.312;9.244;2024-03-22T04:28:21;11.87;;;7.17;;
3939;SDS011;1984;48.312;9.244;2024-03-22T04:31:01;10.40;;;6.90;;
3939;SDS011;1984;48.312;9.244;2024-03-22T04:33:27;9.60;;;6.70;;
3939;SDS011;1984;48.312;9.244;2024-03-22T04:35:53;14.37;;;6.80;;
3939;SDS011;1984;48.312;9.244;2024-03-22T04:38:20;10.27;;;6.13;;
3939;SDS011;1984;48.312;9.244;2024-03-22T04:40:45;9.70;;;5.90;;
3939;SDS011;1984;48.312;9.244;2024-03-22T04:43:11;8.00;;;6.50;;
3939;SDS011;1984;48.312;9.244;2024-03-22T04:45:36;11.13;;;7.13;;
3939;SDS011;1984;48.312;9.244;2024-03-22T04:48:03;9.50;;;7.63;;
3939;SDS011;1984;48.312;9.244;2024-03-22T04:50:29;11.80;;;7.07;;
3939;SDS011;1984;48.312;9.244;2024-03-22T04:52:55;13.27;;;7.47;;
3939;SDS011;1984;48.312;9.244;2024-03-22T04:55:20;10.20;;;6.90;;
3939;SDS011;1984;48.312;9.244;2024-03-22T04:57:46;9.10;;;5.60;;
3939;SDS011;1984;48.312;9.244;2024-03-22T05:00:12;10.40;;;6.20;;
3939;SDS011;1984;48.312;9.244;2024-03-22T05:02:38;13.93;;;6.87;;
3939;SDS011;1984;48.312;9.244;2024-03-22T05:05:03;10.20;;;6.40;;
3939;SDS011;1984;48.312;9.244;2024-03-22T05:07:29;10.70;;;6.37;;
3939;SDS011;1984;48.312;9.244;2024-03-22T05:09:54;8.37;;;5.73;;
3939;SDS011;1984;48.312;9.244;2024-03-22T05:12:20;8.60;;;5.50;;
3939;SDS011;1984;48.312;9.244;2024-03-22T05:14:45;8.60;;;6.13;;
3939;SDS011;1984;48.312;9.244;2024-03-22T05:17:11;8.13;;;5.83;;
3939;SDS011;1984;48.312;9.244;2024-03-22T05:19:36;10.20;;;6.10;;
3939;SDS011;1984;48.312;9.244;2024-03-22T05:22:02;8.90;;;6.33;;
3939;SDS011;1984;48.312;9.244;2024-03-22T05:24:28;13.67;;;6.80;;
3939;SDS011;1984;48.312;9.244;2024-03-22T05:26:53;9.07;;;6.03;;
3939;SDS011;1984;48.312;9.244;2024-03-22T05:29:18;8.40;;;6.30;;
3939;SDS011;1984;48.312;9.244;2024-03-22T05:31:48;9.00;;;5.53;;
3939;SDS011;1984;48.312;9.244;2024-03-22T05:34:16;8.53;;;5.70;;
3939;SDS011;1984;48.312;9.244;2024-03-22T05:36:41;7.53;;;5.40;;
3939;SDS011;1984;48.312;9.244;2024-03-22T05:39:07;7.27;;;5.50;;
3939;SDS011;1984;48.312;9.244;2024-03-22T05:41:33;8.23;;;5.37;;
3939;SDS011;1984;48.312;9.244;2024-03-22T05:43:58;9.70;;;6.63;;
3939;SDS011;1984;48.312;9.244;2024-03-22T05:46:24;12.93;;;5.83;;
3939;SDS011;1984;48.312;9.244;2024-03-22T05:48:49;7.87;;;5.13;;
3939;SDS011;1984;48.312;9.244;2024-03-22T05:51:17;8.43;;;6.10;;
3939;SDS011;1984;48.312;9.244;2024-03-22T05:53:42;11.40;;;5.40;;
3939;SDS011;1984;48.312;9.244;2024-03-22T05:56:08;7.70;;;5.90;;
3939;SDS011;1984;48.312;9.244;2024-03-22T05:58:34;12.60;;;7.20;;
3939;SDS011;1984;48.312;9.244;2024-03-22T06:01:01;32.53;;;13.80;;
3939;SDS011;1984;48.312;9.244;2024-03-22T06:03:28;41.57;;;16.50;;
3939;SDS011;1984;48.312;9.244;2024-03-22T06:05:54;38.50;;;13.90;;
3939;SDS011;1984;48.312;9.244;2024-03-22T06:08:21;21.60;;;10.80;;
3939;SDS011;1984;48.312;9.244;2024-03-22T06:10:47;26.20;;;11.53;;
3939;SDS011;1984;48.312;9.244;2024-03-22T06:13:13;18.20;;;10.10;;
3939;SDS011;1984;48.312;9.244;2024-03-22T06:15:40;23.90;;;11.03;;
3939;SDS011;1984;48.312;9.244;2024-03-22T06:18:10;26.23;;;13.70;;
3939;SDS011;1984;48.312;9.244;2024-03-22T06:20:36;21.90;;;11.70;;
3939;SDS011;1984;48.312;9.244;2024-03-22T06:23:01;20.67;;;11.30;;
3939;SDS011;1984;48.312;9.244;2024-03-22T06:25:27;21.50;;;11.13;;
3939;SDS011;1984;48.312;9.244;2024-03-22T06:27:52;25.67;;;12.87;;
3939;SDS011;1984;48.312;9.244;2024-03-22T06:30:18;33.13;;;15.30;;
3939;SDS011;1984;48.312;9.244;2024-03-22T06:32:43;60.33;;;24.03;;
3939;SDS011;1984;48.312;9.244;2024-03-22T06:35:09;52.03;;;19.73;;
3939;SDS011;1984;48.312;9.244;2024-03-22T06:37:36;27.53;;;14.07;;
3939;SDS011;1984;48.312;9.244;2024-03-22T06:40:02;25.53;;;13.57;;
3939;SDS011;1984;48.312;9.244;2024-03-22T06:42:30;24.30;;;12.90;;
3939;SDS011;1984;48.312;9.244;2024-03-22T06:44:55;19.03;;;10.80;;
3939;SDS011;1984;48.312;9.244;2024-03-22T06:47:21;14.80;;;10.43;;
3939;SDS011;1984;48.312;9.244;2024-03-22T06:49:46;16.63;;;8.90;;
3939;SDS011;1984;48.312;9.244;2024-03-22T06:52:12;16.30;;;10.90;;
3939;SDS011;1984;48.312;9.244;2024-03-22T06:54:38;19.97;;;10.60;;
3939;SDS011;1984;48.312;9.244;2024-03-22T06:57:03;16.67;;;10.67;;
3939;SDS011;1984;48.312;9.244;2024-03-22T06:59:29;17.90;;;13.20;;
3939;SDS011;1984;48.312;9.244;2024-03-22T07:01:54;15.03;;;10.10;;
3939;SDS011;1984;48.312;9.244;2024-03-22T07:04:20;18.27;;;10.33;;
3939;SDS011;1984;48.312;9.244;2024-03-22T07:06:45;25.70;;;10.67;;
3939;SDS011;1984;48.312;9.244;2024-03-22T07:09:11;26.60;;;10.50;;
3939;SDS011;1984;48.312;9.244;2024-03-22T07:11:36;11.10;;;9.00;;
3939;SDS011;1984;48.312;9.244;2024-03-22T07:14:02;15.77;;;9.97;;
3939;SDS011;1984;48.312;9.244;2024-03-22T07:16:27;16.63;;;10.37;;
3939;SDS011;1984;48.312;9.244;2024-03-22T07:18:53;13.83;;;9.47;;
3939;SDS011;1984;48.312;9.244;2024-03-22T07:21:18;14.83;;;9.73;;
3939;SDS011;1984;48.312;9.244;2024-03-22T07:23:44;12.50;;;8.83;;
3939;SDS011;1984;48.312;9.244;2024-03-22T07:26:09;15.90;;;8.50;;
3939;SDS011;1984;48.312;9.244;2024-03-22T07:28:35;12.33;;;8.40;;
3939;SDS011;1984;48.312;9.244;2024-03-22T07:31:00;10.90;;;7.63;;
3939;SDS011;1984;48.312;9.244;2024-03-22T07:33:26;10.97;;;7.30;;
3939;SDS011;1984;48.312;9.244;2024-03-22T07:35:51;10.30;;;7.50;;
3939;SDS011;1984;48.312;9.244;2024-03-22T07:38:19;15.43;;;9.27;;
3939;SDS011;1984;48.312;9.244;2024-03-22T07:40:44;13.50;;;8.20;;
3939;SDS011;1984;48.312;9.244;2024-03-22T07:43:10;14.67;;;8.43;;
3939;SDS011;1984;48.312;9.244;2024-03-22T07:45:36;17.73;;;10.03;;
3939;SDS011;1984;48.312;9.244;2024-03-22T07:48:02;13.63;;;9.20;;
3939;SDS011;1984;48.312;9.244;2024-03-22T07:50:28;13.43;;;8.00;;
3939;SDS011;1984;48.312;9.244;2024-03-22T07:52:54;15.90;;;9.70;;
3939;SDS011;1984;48.312;9.244;2024-03-22T07:55:19;17.60;;;10.10;;
3939;SDS011;1984;48.312;9.244;2024-03-22T07:57:45;16.33;;;8.67;;
3939;SDS011;1984;48.312;9.244;2024-03-22T08:00:10;10.80;;;8.37;;
3939;SDS011;1984;48.312;9.244;2024-03-22T08:02:36;12.87;;;7.73;;
3939;SDS011;1984;48.312;9.244;2024-03-22T08:05:02;12.33;;;7.03;;
3939;SDS011;1984;48.312;9.244;2024-03-22T08:07:28;14.73;;;9.00;;
3939;SDS011;1984;48.312;9.244;2024-03-22T08:09:54;15.00;;;9.13;;
3939;SDS011;1984;48.312;9.244;2024-03-22T08:12:20;14.67;;;8.87;;
3939;SDS011;1984;48.312;9.244;2024-03-22T08:14:46;10.40;;;7.10;;
3939;SDS011;1984;48.312;9.244;2024-03-22T08:17:12;11.33;;;7.03;;
3939;SDS011;1984;48.312;9.244;2024-03-22T08:19:38;9.70;;;6.87;;
3939;SDS011;1984;48.312;9.244;2024-03-22T08:22:03;12.00;;;7.23;;
3939;SDS011;1984;48.312;9.244;2024-03-22T08:24:29;8.90;;;6.50;;
3939;SDS011;1984;48.312;9.244;2024-03-22T08:26:55;7.07;;;6.00;;
3939;SDS011;1984;48.312;9.244;2024-03-22T08:29:20;6.83;;;5.17;;
3939;SDS011;1984;48.312;9.244;2024-03-22T08:31:46;6.07;;;4.27;;
3939;SDS011;1984;48.312;9.244;2024-03-22T08:34:12;5.03;;;4.30;;
3939;SDS011;1984;48.312;9.244;2024-03-22T08:36:37;4.77;;;3.90;;
3939;SDS011;1984;48.312;9.244;2024-03-22T08:39:03;6.43;;;3.97;;
3939;SDS011;1984;48.312;9.244;2024-03-22T08:41:30;6.80;;;4.00;;
3939;SDS011;1984;48.312;9.244;2024-03-22T08:43:55;5.67;;;4.30;;
3939;SDS011;1984;48.312;9.244;2024-03-22T08:46:22;5.20;;;3.60;;
3939;SDS011;1984;48.312;9.244;2024-03-22T08:48:49;8.00;;;3.47;;
3939;SDS011;1984;48.312;9.244;2024-03-22T08:51:15;4.77;;;3.70;;
3939;SDS011;1984;48.312;9.244;2024-03-22T08:53:41;5.33;;;3.90;;
3939;SDS011;1984;48.312;9.244;2024-03-22T08:56:06;3.97;;;3.30;;
3939;SDS011;1984;48.312;9.244;2024-03-22T08:58:32;4.53;;;3.07;;
3939;SDS011;1984;48.312;9.244;2024-03-22T09:00:58;5.27;;;3.20;;
3939;SDS011;1984;48.312;9.244;2024-03-22T09:03:23;6.07;;;3.97;;
3939;SDS011;1984;48.312;9.244;2024-03-22T09:05:52;5.60;;;3.80;;
3939;SDS011;1984;48.312;9.244;2024-03-22T09:08:20;6.67;;;3.50;;
3939;SDS011;1984;48.312;9.244;2024-03-22T09:10:49;7.23;;;4.17;;
3939;SDS011;1984;48.312;9.244;2024-03-22T09:13:14;6.30;;;4.23;;
3939;SDS011;1984;48.312;9.244;2024-03-22T09:15:41;6.40;;;4.40;;
3939;SDS011;1984;48.312;9.244;2024-03-22T09:18:06;6.20;;;4.40;;
3939;SDS011;1984;48.312;9.244;2024-03-22T09:20:32;6.83;;;4.23;;
3939;SDS011;1984;48.312;9.244;2024-03-22T09:22:57;5.13;;;4.20;;
3939;SDS011;1984;48.312;9.244;2024-03-22T09:25:23;6.93;;;3.83;;
3939;SDS011;1984;48.312;9.244;2024-03-22T09:27:49;6.30;;;3.40;;
3939;SDS011;1984;48.312;9.244;2024-03-22T09:30:15;4.40;;;3.53;;
3939;SDS011;1984;48.312;9.244;2024-03-22T09:32:40;3.83;;;3.53;;
3939;SDS011;1984;48.312;9.244;2024-03-22T09:35:07;7.90;;;4.67;;
3939;SDS011;1984;48.312;9.244;2024-03-22T09:37:33;6.27;;;4.20;;
3939;SDS011;1984;48.312;9.244;2024-03-22T09:39:59;4.00;;;3.63;;
3939;SDS011;1984;48.312;9.244;2024-03-22T09:42:24;6.80;;;4.80;;
3939;SDS011;1984;48.312;9.244;2024-03-22T09:44:50;6.60;;;3.93;;
3939;SDS011;1984;48.312;9.244;2024-03-22T09:47:16;4.90;;;3.80;;
3939;SDS011;1984;48.312;9.244;2024-03-22T09:49:43;8.50;;;3.90;;
3939;SDS011;1984;48.312;9.244;2024-03-22T09:52:14;7.73;;;3.60;;
3939;SDS011;1984;48.312;9.244;2024-03-22T09:54:43;6.70;;;4.23;;
3939;SDS011;1984;48.312;9.244;2024-03-22T09:57:11;5.43;;;3.33;;
3939;SDS011;1984;48.312;9.244;2024-03-22T09:59:43;4.13;;;2.93;;
3939;SDS011;1984;48.312;9.244;2024-03-22T10:02:10;5.13;;;2.93;;
3939;SDS011;1984;48.312;9.244;2024-03-22T10:04:37;7.73;;;4.03;;
3939;SDS011;1984;48.312;9.244;2024-03-22T10:07:03;4.63;;;3.33;;
3939;SDS011;1984;48.312;9.244;2024-03-22T10:09:29;8.70;;;3.83;;
3939;SDS011;1984;48.312;9.244;2024-03-22T10:11:56;3.60;;;2.73;;
3939;SDS011;1984;48.312;9.244;2024-03-22T10:14:22;4.50;;;2.57;;
3939;SDS011;1984;48.312;9.244;2024-03-22T10:16:50;3.80;;;2.60;;
3939;SDS011;1984;48.312;9.244;2024-03-22T10:19:18;6.77;;;2.60;;
3939;SDS011;1984;48.312;9.244;2024-03-22T10:21:44;3.50;;;2.80;;
3939;SDS011;1984;48.312;9.244;2024-03-22T10:24:09;4.40;;;3.00;;
3939;SDS011;1984;48.312;9.244;2024-03-22T10:26:35;4.30;;;2.97;;
3939;SDS011;1984;48.312;9.244;2024-03-22T10:29:01;6.73;;;2.90;;
3939;SDS011;1984;48.312;9.244;2024-03-22T10:31:30;7.27;;;3.27;;
3939;SDS011;1984;48.312;9.244;2024-03-22T10:33:56;6.20;;;3.30;;
3939;SDS011;1984;48.312;9.244;2024-03-22T10:36:23;12.37;;;2.60;;
3939;SDS011;1984;48.312;9.244;2024-03-22T10:38:50;7.33;;;3.00;;
3939;SDS011;1984;48.312;9.244;2024-03-22T10:41:16;4.53;;;3.00;;
3939;SDS011;1984;48.312;9.244;2024-03-22T10:43:42;4.37;;;3.17;;
3939;SDS011;1984;48.312;9.244;2024-03-22T10:46:07;6.80;;;3.27;;
3939;SDS011;1984;48.312;9.244;2024-03-22T10:48:34;7.33;;;3.60;;
3939;SDS011;1984;48.312;9.244;2024-03-22T10:51:01;3.10;;;2.80;;
3939;SDS011;1984;48.312;9.244;2024-03-22T10:53:27;3.60;;;3.30;;
3939;SDS011;1984;48.312;9.244;2024-03-22T10:55:56;6.13;;;3.50;;
3939;SDS011;1984;48.312;9.244;2024-03-22T10:58:25;5.20;;;2.40;;
3939;SDS011;1984;48.312;9.244;2024-03-22T11:00:51;5.13;;;3.30;;
3939;SDS011;1984;48.312;9.244;2024-03-22T11:03:21;3.40;;;3.10;;
3939;SDS011;1984;48.312;9.244;2024-03-22T11:05:54;8.77;;;2.97;;
3939;SDS011;1984;48.312;9.244;2024-03-22T11:08:24;3.27;;;2.70;;
3939;SDS011;1984;48.312;9.244;2024-03-22T11:10:50;5.20;;;2.77;;
3939;SDS011;1984;48.312;9.244;2024-03-22T11:13:16;5.53;;;3.37;;
3939;SDS011;1984;48.312;9.244;2024-03-22T11:15:42;4.70;;;3.33;;
3939;SDS011;1984;48.312;9.244;2024-03-22T11:18:08;3.87;;;2.77;;
3939;SDS011;1984;48.312;9.244;2024-03-22T11:20:37;7.10;;;2.80;;
3939;SDS011;1984;48.312;9.244;2024-03-22T11:23:03;6.20;;;2.53;;
3939;SDS011;1984;48.312;9.244;2024-03-22T11:25:31;4.27;;;2.57;;
3939;SDS011;1984;48.312;9.244;2024-03-22T11:27:57;2.33;;;2.13;;
3939;SDS011;1984;48.312;9.244;2024-03-22T11:30:29;5.23;;;2.57;;
3939;SDS011;1984;48.312;9.244;2024-03-22T11:32:56;3.13;;;2.60;;
3939;SDS011;1984;48.312;9.244;2024-03-22T11:35:22;3.40;;;2.70;;
3939;SDS011;1984;48.312;9.244;2024-03-22T11:37:49;4.90;;;2.77;;
3939;SDS011;1984;48.312;9.244;2024-03-22T11:40:15;3.43;;;2.67;;
3939;SDS011;1984;48.312;9.244;2024-03-22T11:42:44;3.90;;;2.93;;
3939;SDS011;1984;48.312;9.244;2024-03-22T11:45:14;3.43;;;2.37;;
3939;SDS011;1984;48.312;9.244;2024-03-22T11:47:41;3.47;;;1.93;;
3939;SDS011;1984;48.312;9.244;2024-03-22T11:50:07;1.77;;;1.67;;
3939;SDS011;1984;48.312;9.244;2024-03-22T11:52:34;2.40;;;1.80;;
3939;SDS011;1984;48.312;9.244;2024-03-22T11:55:00;4.10;;;2.07;;
3939;SDS011;1984;48.312;9.244;2024-03-22T11:57:26;3.30;;;1.80;;
3939;SDS011;1984;48.312;9.244;2024-03-22T11:59:58;3.63;;;1.97;;
3939;SDS011;1984;48.312;9.244;2024-03-22T12:02:25;5.17;;;1.90;;
3939;SDS011;1984;48.312;9.244;2024-03-22T12:04:50;1.53;;;1.10;;
3939;SDS011;1984;48.312;9.244;2024-03-22T12:07:16;3.90;;;2.07;;
3939;SDS011;1984;48.312;9.244;2024-03-22T12:09:46;2.00;;;1.60;;
3939;SDS011;1984;48.312;9.244;2024-03-22T12:12:12;1.60;;;1.50;;
3939;SDS011;1984;48.312;9.244;2024-03-22T12:14:38;4.17;;;1.70;;
3939;SDS011;1984;48.312;9.244;2024-03-22T12:17:05;1.60;;;1.50;;
3939;SDS011;1984;48.312;9.244;2024-03-22T12:19:31;6.30;;;2.17;;
3939;SDS011;1984;48.312;9.244;2024-03-22T12:21:57;6.83;;;1.57;;
3939;SDS011;1984;48.312;9.244;2024-03-22T12:24:23;3.73;;;1.77;;
3939;SDS011;1984;48.312;9.244;2024-03-22T12:26:49;3.50;;;1.47;;
3939;SDS011;1984;48.312;9.244;2024-03-22T12:29:15;1.90;;;1.70;;
3939;SDS011;1984;48.312;9.244;2024-03-22T12:31:42;7.30;;;1.67;;
3939;SDS011;1984;48.312;9.244;2024-03-22T12:34:07;1.53;;;1.37;;
3939;SDS011;1984;48.312;9.244;2024-03-22T12:36:33;1.10;;;1.10;;
3939;SDS011;1984;48.312;9.244;2024-03-22T12:38:59;1.43;;;1.20;;
3939;SDS011;1984;48.312;9.244;2024-03-22T12:41:24;6.07;;;1.60;;
3939;SDS011;1984;48.312;9.244;2024-03-22T12:43:50;1.23;;;1.13;;
3939;SDS011;1984;48.312;9.244;2024-03-22T12:46:15;1.47;;;1.37;;
3939;SDS011;1984;48.312;9.244;2024-03-22T12:48:41;2.47;;;1.13;;
3939;SDS011;1984;48.312;9.244;2024-03-22T12:51:07;1.73;;;1.63;;
3939;SDS011;1984;48.312;9.244;2024-03-22T12:53:32;2.60;;;1.77;;
3939;SDS011;1984;48.312;9.244;2024-03-22T12:55:58;3.10;;;1.70;;
3939;SDS011;1984;48.312;9.244;2024-03-22T12:58:23;1.60;;;1.23;;
3939;SDS011;1984;48.312;9.244;2024-03-22T13:00:49;1.80;;;1.70;;
3939;SDS011;1984;48.312;9.244;2024-03-22T13:03:14;2.50;;;1.80;;
3939;SDS011;1984;48.312;9.244;2024-03-22T13:05:41;1.83;;;1.50;;
3939;SDS011;1984;48.312;9.244;2024-03-22T13:08:09;1.90;;;1.67;;
3939;SDS011;1984;48.312;9.244;2024-03-22T13:10:34;2.30;;;1.90;;
3939;SDS011;1984;48.312;9.244;2024-03-22T13:13:00;2.60;;;1.40;;
3939;SDS011;1984;48.312;9.244;2024-03-22T13:15:26;3.20;;;1.40;;
3939;SDS011;1984;48.312;9.244;2024-03-22T13:17:51;2.07;;;1.87;;
3939;SDS011;1984;48.312;9.244;2024-03-22T13:20:20;1.77;;;1.50;;
3939;SDS011;1984;48.312;9.244;2024-03-22T13:22:45;1.73;;;1.50;;
3939;SDS011;1984;48.312;9.244;2024-03-22T13:25:11;2.50;;;1.80;;
3939;SDS011;1984;48.312;9.244;2024-03-22T13:27:36;3.63;;;2.03;;
3939;SDS011;1984;48.312;9.244;2024-03-22T13:30:06;1.77;;;1.50;;
3939;SDS011;1984;48.312;9.244;2024-03-22T13:32:35;2.17;;;1.60;;
3939;SDS011;1984;48.312;9.244;2024-03-22T13:35:01;5.37;;;1.80;;
3939;SDS011;1984;48.312;9.244;2024-03-22T13:37:27;6.33;;;1.70;;
3939;SDS011;1984;48.312;9.244;2024-03-22T13:39:52;1.50;;;1.40;;
3939;SDS011;1984;48.312;9.244;2024-03-22T13:42:18;2.80;;;1.40;;
3939;SDS011;1984;48.312;9.244;2024-03-22T13:44:44;2.73;;;1.47;;
3939;SDS011;1984;48.312;9.244;2024-03-22T13:47:10;2.00;;;1.90;;
3939;SDS011;1984;48.312;9.244;2024-03-22T13:49:35;3.00;;;1.50;;
3939;SDS011;1984;48.312;9.244;2024-03-22T13:52:01;2.40;;;1.40;;
3939;SDS011;1984;48.312;9.244;2024-03-22T13:54:27;6.60;;;2.10;;
3939;SDS011;1984;48.312;9.244;2024-03-22T13:56:52;2.70;;;2.23;;
3939;SDS011;1984;48.312;9.244;2024-03-22T13:59:18;1.53;;;1.43;;
3939;SDS011;1984;48.312;9.244;2024-03-22T14:01:44;1.60;;;1.50;;
3939;SDS011;1984;48.312;9.244;2024-03-22T14:04:12;4.90;;;2.17;;
3939;SDS011;1984;48.312;9.244;2024-03-22T14:06:38;2.10;;;1.70;;
3939;SDS011;1984;48.312;9.244;2024-03-22T14:09:03;2.73;;;1.90;;
3939;SDS011;1984;48.312;9.244;2024-03-22T14:11:30;17.47;;;2.10;;
3939;SDS011;1984;48.312;9.244;2024-03-22T14:13:56;2.40;;;1.60;;
3939;SDS011;1984;48.312;9.244;2024-03-22T14:16:22;2.10;;;1.53;;
3939;SDS011;1984;48.312;9.244;2024-03-22T14:18:48;6.73;;;1.43;;
3939;SDS011;1984;48.312;9.244;2024-03-22T14:21:14;1.70;;;1.47;;
3939;SDS011;1984;48.312;9.244;2024-03-22T14:23:44;2.17;;;1.57;;
3939;SDS011;1984;48.312;9.244;2024-03-22T14:26:11;1.80;;;1.60;;
3939;SDS011;1984;48.312;9.244;2024-03-22T14:28:37;1.83;;;1.60;;
3939;SDS011;1984;48.312;9.244;2024-03-22T14:31:04;6.43;;;1.97;;
3939;SDS011;1984;48.312;9.244;2024-03-22T14:33:33;5.20;;;1.93;;
3939;SDS011;1984;48.312;9.244;2024-03-22T14:35:59;2.50;;;1.73;;
3939;SDS011;1984;48.312;9.244;2024-03-22T14:38:25;1.63;;;1.53;;
3939;SDS011;1984;48.312;9.244;2024-03-22T14:40:51;2.37;;;1.80;;
3939;SDS011;1984;48.312;9.244;2024-03-22T14:43:17;2.13;;;1.70;;
3939;SDS011;1984;48.312;9.244;2024-03-22T14:45:43;4.90;;;1.50;;
3939;SDS011;1984;48.312;9.244;2024-03-22T14:48:08;3.63;;;1.93;;
3939;SDS011;1984;48.312;9.244;2024-03-22T14:50:35;2.10;;;1.90;;
3939;SDS011;1984;48.312;9.244;2024-03-22T14:53:03;2.10;;;1.70;;
3939;SDS011;1984;48.312;9.244;2024-03-22T14:55:31;2.90;;;2.00;;
3939;SDS011;1984;48.312;9.244;2024-03-22T14:57:57;4.30;;;1.73;;
3939;SDS011;1984;48.312;9.244;2024-03-22T15:00:22;1.77;;;1.53;;